sensor_id;sensor_type;location;lat;lon;timestamp;temperature;humidity
24262;DHT22;12385;51.412;5.540;2022-08-07T00:00:33;16.90;93.40
24262;DHT22;12385;51.412;5.540;2022-08-07T00:02:59;16.90;93.70
24262;DHT22;12385;51.412;5.540;2022-08-07T00:05:26;16.90;94.00
24262;DHT22;12385;51.412;5.540;2022-08-07T00:07:52;16.80;94.30
24262;DHT22;12385;51.412;5.540;2022-08-07T00:10:19;16.80;94.60
24262;DHT22;12385;51.412;5.540;2022-08-07T00:12:45;16.70;95.20
24262;DHT22;12385;51.412;5.540;2022-08-07T00:15:11;16.70;95.10
24262;DHT22;12385;51.412;5.540;2022-08-07T00:17:37;16.70;95.40
24262;DHT22;12385;51.412;5.540;2022-08-07T00:20:04;16.60;95.70
24262;DHT22;12385;51.412;5.540;2022-08-07T00:22:29;16.60;95.90
24262;DHT22;12385;51.412;5.540;2022-08-07T00:24:55;16.50;96.10
24262;DHT22;12385;51.412;5.540;2022-08-07T00:27:21;16.50;96.40
24262;DHT22;12385;51.412;5.540;2022-08-07T00:29:46;16.40;96.70
24262;DHT22;12385;51.412;5.540;2022-08-07T00:32:12;16.40;97.00
24262;DHT22;12385;51.412;5.540;2022-08-07T00:34:38;16.40;97.20
24262;DHT22;12385;51.412;5.540;2022-08-07T00:37:05;16.30;97.40
24262;DHT22;12385;51.412;5.540;2022-08-07T00:39:32;16.30;97.70
24262;DHT22;12385;51.412;5.540;2022-08-07T00:41:58;16.30;97.90
24262;DHT22;12385;51.412;5.540;2022-08-07T00:44:24;16.20;98.10
24262;DHT22;12385;51.412;5.540;2022-08-07T00:46:50;16.20;98.30
24262;DHT22;12385;51.412;5.540;2022-08-07T00:49:15;16.20;98.60
24262;DHT22;12385;51.412;5.540;2022-08-07T00:51:41;16.10;98.80
24262;DHT22;12385;51.412;5.540;2022-08-07T00:54:08;16.10;99.00
24262;DHT22;12385;51.412;5.540;2022-08-07T00:56:34;16.00;99.20
24262;DHT22;12385;51.412;5.540;2022-08-07T00:59:01;15.90;99.40
24262;DHT22;12385;51.412;5.540;2022-08-07T01:01:27;15.90;99.70
24262;DHT22;12385;51.412;5.540;2022-08-07T01:03:52;15.90;99.90
24262;DHT22;12385;51.412;5.540;2022-08-07T01:06:19;15.90;99.90
24262;DHT22;12385;51.412;5.540;2022-08-07T01:08:45;15.80;99.90
24262;DHT22;12385;51.412;5.540;2022-08-07T01:11:15;15.80;99.90
24262;DHT22;12385;51.412;5.540;2022-08-07T01:13:41;15.70;99.90
24262;DHT22;12385;51.412;5.540;2022-08-07T01:16:08;15.70;99.90
24262;DHT22;12385;51.412;5.540;2022-08-07T01:18:34;15.70;99.90
24262;DHT22;12385;51.412;5.540;2022-08-07T01:21:17;15.60;99.90
24262;DHT22;12385;51.412;5.540;2022-08-07T01:23:46;15.60;99.90
24262;DHT22;12385;51.412;5.540;2022-08-07T01:26:13;15.50;99.90
24262;DHT22;12385;51.412;5.540;2022-08-07T01:28:41;15.50;99.90
24262;DHT22;12385;51.412;5.540;2022-08-07T01:31:08;15.50;99.90
24262;DHT22;12385;51.412;5.540;2022-08-07T01:33:34;15.50;99.90
24262;DHT22;12385;51.412;5.540;2022-08-07T01:36:00;15.50;99.90
24262;DHT22;12385;51.412;5.540;2022-08-07T01:38:27;15.50;99.90
24262;DHT22;12385;51.412;5.540;2022-08-07T01:40:58;15.40;99.90
24262;DHT22;12385;51.412;5.540;2022-08-07T01:43:24;15.40;99.90
24262;DHT22;12385;51.412;5.540;2022-08-07T01:45:50;15.40;99.90
24262;DHT22;12385;51.412;5.540;2022-08-07T01:48:17;15.30;99.90
24262;DHT22;12385;51.412;5.540;2022-08-07T01:50:47;15.30;99.90
24262;DHT22;12385;51.412;5.540;2022-08-07T01:53:16;15.20;99.90
24262;DHT22;12385;51.412;5.540;2022-08-07T01:55:45;15.20;99.90
24262;DHT22;12385;51.412;5.540;2022-08-07T01:58:14;15.20;99.90
24262;DHT22;12385;51.412;5.540;2022-08-07T02:00:43;15.10;99.90
24262;DHT22;12385;51.412;5.540;2022-08-07T02:03:13;15.10;99.90
24262;DHT22;12385;51.412;5.540;2022-08-07T02:06:02;15.00;99.90
24262;DHT22;12385;51.412;5.540;2022-08-07T02:08:29;15.00;99.90
24262;DHT22;12385;51.412;5.540;2022-08-07T02:10:59;15.00;99.90
24262;DHT22;12385;51.412;5.540;2022-08-07T02:13:28;14.90;99.90
24262;DHT22;12385;51.412;5.540;2022-08-07T02:15:58;14.90;99.90
24262;DHT22;12385;51.412;5.540;2022-08-07T02:18:26;14.90;99.90
24262;DHT22;12385;51.412;5.540;2022-08-07T02:20:54;14.90;99.90
24262;DHT22;12385;51.412;5.540;2022-08-07T02:23:21;14.80;99.90
24262;DHT22;12385;51.412;5.540;2022-08-07T02:25:47;14.80;99.90
24262;DHT22;12385;51.412;5.540;2022-08-07T02:28:14;14.80;99.90
24262;DHT22;12385;51.412;5.540;2022-08-07T02:30:41;14.80;99.90
24262;DHT22;12385;51.412;5.540;2022-08-07T02:33:08;14.70;99.90
24262;DHT22;12385;51.412;5.540;2022-08-07T02:35:35;14.70;99.90
24262;DHT22;12385;51.412;5.540;2022-08-07T02:38:02;14.70;99.90
24262;DHT22;12385;51.412;5.540;2022-08-07T02:40:30;14.70;99.90
24262;DHT22;12385;51.412;5.540;2022-08-07T02:42:58;14.70;99.90
24262;DHT22;12385;51.412;5.540;2022-08-07T02:45:26;14.70;99.90
24262;DHT22;12385;51.412;5.540;2022-08-07T02:47:52;14.70;99.90
24262;DHT22;12385;51.412;5.540;2022-08-07T02:50:18;14.70;99.90
24262;DHT22;12385;51.412;5.540;2022-08-07T02:53:05;14.70;99.90
24262;DHT22;12385;51.412;5.540;2022-08-07T02:55:33;14.70;99.90
24262;DHT22;12385;51.412;5.540;2022-08-07T02:58:02;14.70;99.90
24262;DHT22;12385;51.412;5.540;2022-08-07T03:00:28;14.60;99.90
24262;DHT22;12385;51.412;5.540;2022-08-07T03:02:55;14.60;99.90
24262;DHT22;12385;51.412;5.540;2022-08-07T03:05:22;14.60;99.90
24262;DHT22;12385;51.412;5.540;2022-08-07T03:07:48;14.60;99.90
24262;DHT22;12385;51.412;5.540;2022-08-07T03:10:14;14.60;99.90
24262;DHT22;12385;51.412;5.540;2022-08-07T03:12:43;14.60;99.90
24262;DHT22;12385;51.412;5.540;2022-08-07T03:15:10;14.50;99.90
24262;DHT22;12385;51.412;5.540;2022-08-07T03:17:36;14.50;99.90
24262;DHT22;12385;51.412;5.540;2022-08-07T03:20:04;14.40;99.90
24262;DHT22;12385;51.412;5.540;2022-08-07T03:22:30;14.40;99.90
24262;DHT22;12385;51.412;5.540;2022-08-07T03:24:57;14.40;99.90
24262;DHT22;12385;51.412;5.540;2022-08-07T03:27:24;14.30;99.90
24262;DHT22;12385;51.412;5.540;2022-08-07T03:29:51;14.20;99.90
24262;DHT22;12385;51.412;5.540;2022-08-07T03:32:21;14.20;99.90
24262;DHT22;12385;51.412;5.540;2022-08-07T03:34:49;14.10;99.90
24262;DHT22;12385;51.412;5.540;2022-08-07T03:37:17;14.10;99.90
24262;DHT22;12385;51.412;5.540;2022-08-07T03:39:44;14.10;99.90
24262;DHT22;12385;51.412;5.540;2022-08-07T03:42:13;14.00;99.90
24262;DHT22;12385;51.412;5.540;2022-08-07T03:44:39;14.00;99.90
24262;DHT22;12385;51.412;5.540;2022-08-07T03:47:06;14.00;99.90
24262;DHT22;12385;51.412;5.540;2022-08-07T03:49:33;14.00;99.90
24262;DHT22;12385;51.412;5.540;2022-08-07T03:51:59;13.90;99.90
24262;DHT22;12385;51.412;5.540;2022-08-07T03:54:25;13.90;99.90
24262;DHT22;12385;51.412;5.540;2022-08-07T03:56:53;13.80;99.90
24262;DHT22;12385;51.412;5.540;2022-08-07T03:59:21;13.80;99.90
24262;DHT22;12385;51.412;5.540;2022-08-07T04:01:48;13.80;99.90
24262;DHT22;12385;51.412;5.540;2022-08-07T04:04:17;13.80;99.90
24262;DHT22;12385;51.412;5.540;2022-08-07T04:06:44;13.80;99.90
24262;DHT22;12385;51.412;5.540;2022-08-07T04:09:11;13.70;99.90
24262;DHT22;12385;51.412;5.540;2022-08-07T04:11:37;13.70;99.90
24262;DHT22;12385;51.412;5.540;2022-08-07T04:14:03;13.70;99.90
24262;DHT22;12385;51.412;5.540;2022-08-07T04:16:29;13.70;99.90
24262;DHT22;12385;51.412;5.540;2022-08-07T04:18:56;13.60;99.90
24262;DHT22;12385;51.412;5.540;2022-08-07T04:21:22;13.60;99.90
24262;DHT22;12385;51.412;5.540;2022-08-07T04:23:47;13.60;99.90
24262;DHT22;12385;51.412;5.540;2022-08-07T04:26:14;13.60;99.90
24262;DHT22;12385;51.412;5.540;2022-08-07T04:28:40;13.60;99.90
24262;DHT22;12385;51.412;5.540;2022-08-07T04:31:07;13.60;99.90
24262;DHT22;12385;51.412;5.540;2022-08-07T04:33:35;13.50;99.90
24262;DHT22;12385;51.412;5.540;2022-08-07T04:36:01;13.50;99.90
24262;DHT22;12385;51.412;5.540;2022-08-07T04:38:27;13.50;99.90
24262;DHT22;12385;51.412;5.540;2022-08-07T04:40:53;13.50;99.90
24262;DHT22;12385;51.412;5.540;2022-08-07T04:43:24;13.50;99.90
24262;DHT22;12385;51.412;5.540;2022-08-07T04:46:13;13.60;99.90
24262;DHT22;12385;51.412;5.540;2022-08-07T04:51:25;13.60;99.90
24262;DHT22;12385;51.412;5.540;2022-08-07T04:54:07;13.70;99.90
24262;DHT22;12385;51.412;5.540;2022-08-07T05:05:14;13.80;99.90
24262;DHT22;12385;51.412;5.540;2022-08-07T05:07:57;13.90;99.90
24262;DHT22;12385;51.412;5.540;2022-08-07T05:10:37;13.90;99.90
24262;DHT22;12385;51.412;5.540;2022-08-07T05:13:18;13.90;99.90
24262;DHT22;12385;51.412;5.540;2022-08-07T05:15:51;13.90;99.90
24262;DHT22;12385;51.412;5.540;2022-08-07T05:18:27;13.90;99.90
24262;DHT22;12385;51.412;5.540;2022-08-07T05:20:56;14.00;99.90
24262;DHT22;12385;51.412;5.540;2022-08-07T05:23:37;14.00;99.90
24262;DHT22;12385;51.412;5.540;2022-08-07T05:26:04;14.00;99.90
24262;DHT22;12385;51.412;5.540;2022-08-07T05:28:35;14.00;99.90
24262;DHT22;12385;51.412;5.540;2022-08-07T05:31:02;14.10;99.90
24262;DHT22;12385;51.412;5.540;2022-08-07T05:33:29;14.10;99.90
24262;DHT22;12385;51.412;5.540;2022-08-07T05:35:57;14.20;99.90
24262;DHT22;12385;51.412;5.540;2022-08-07T05:38:24;14.30;99.90
24262;DHT22;12385;51.412;5.540;2022-08-07T05:40:50;14.30;99.90
24262;DHT22;12385;51.412;5.540;2022-08-07T05:43:16;14.40;99.90
24262;DHT22;12385;51.412;5.540;2022-08-07T05:45:43;14.40;99.90
24262;DHT22;12385;51.412;5.540;2022-08-07T05:48:09;14.50;99.90
24262;DHT22;12385;51.412;5.540;2022-08-07T05:50:35;14.60;99.90
24262;DHT22;12385;51.412;5.540;2022-08-07T05:53:01;14.60;99.90
24262;DHT22;12385;51.412;5.540;2022-08-07T05:55:28;14.70;99.90
24262;DHT22;12385;51.412;5.540;2022-08-07T05:57:55;14.80;99.90
24262;DHT22;12385;51.412;5.540;2022-08-07T06:00:22;14.80;99.90
24262;DHT22;12385;51.412;5.540;2022-08-07T06:02:50;14.90;99.90
24262;DHT22;12385;51.412;5.540;2022-08-07T06:05:19;14.90;99.90
24262;DHT22;12385;51.412;5.540;2022-08-07T06:07:46;14.90;99.90
24262;DHT22;12385;51.412;5.540;2022-08-07T06:10:12;15.00;99.90
24262;DHT22;12385;51.412;5.540;2022-08-07T06:12:38;15.00;99.90
24262;DHT22;12385;51.412;5.540;2022-08-07T06:15:04;15.10;99.90
24262;DHT22;12385;51.412;5.540;2022-08-07T06:17:31;15.10;99.90
24262;DHT22;12385;51.412;5.540;2022-08-07T06:19:57;15.20;99.90
24262;DHT22;12385;51.412;5.540;2022-08-07T06:22:24;15.20;99.90
24262;DHT22;12385;51.412;5.540;2022-08-07T06:24:51;15.20;99.90
24262;DHT22;12385;51.412;5.540;2022-08-07T06:27:23;15.30;99.90
24262;DHT22;12385;51.412;5.540;2022-08-07T06:29:49;15.30;99.90
24262;DHT22;12385;51.412;5.540;2022-08-07T06:32:15;15.40;99.90
24262;DHT22;12385;51.412;5.540;2022-08-07T06:34:40;15.50;99.90
24262;DHT22;12385;51.412;5.540;2022-08-07T06:37:06;15.60;99.90
24262;DHT22;12385;51.412;5.540;2022-08-07T06:39:32;15.60;99.90
24262;DHT22;12385;51.412;5.540;2022-08-07T06:44:31;15.70;99.90
24262;DHT22;12385;51.412;5.540;2022-08-07T06:46:58;15.70;99.90
24262;DHT22;12385;51.412;5.540;2022-08-07T06:49:24;15.80;99.90
24262;DHT22;12385;51.412;5.540;2022-08-07T06:51:51;15.80;99.90
24262;DHT22;12385;51.412;5.540;2022-08-07T06:54:18;15.90;99.90
24262;DHT22;12385;51.412;5.540;2022-08-07T06:56:45;15.90;99.90
24262;DHT22;12385;51.412;5.540;2022-08-07T06:59:17;16.00;99.90
24262;DHT22;12385;51.412;5.540;2022-08-07T07:01:44;16.00;99.90
24262;DHT22;12385;51.412;5.540;2022-08-07T07:04:11;16.10;99.90
24262;DHT22;12385;51.412;5.540;2022-08-07T07:06:37;16.20;99.90
24262;DHT22;12385;51.412;5.540;2022-08-07T07:14:44;16.50;99.90
24262;DHT22;12385;51.412;5.540;2022-08-07T07:17:16;16.60;99.90
24262;DHT22;12385;51.412;5.540;2022-08-07T07:19:48;16.70;99.90
24262;DHT22;12385;51.412;5.540;2022-08-07T07:22:16;16.80;99.90
24262;DHT22;12385;51.412;5.540;2022-08-07T07:24:42;16.90;99.90
24262;DHT22;12385;51.412;5.540;2022-08-07T07:27:09;16.90;99.90
24262;DHT22;12385;51.412;5.540;2022-08-07T07:29:38;17.00;99.90
24262;DHT22;12385;51.412;5.540;2022-08-07T07:32:07;17.00;99.90
24262;DHT22;12385;51.412;5.540;2022-08-07T07:34:35;17.00;99.90
24262;DHT22;12385;51.412;5.540;2022-08-07T07:37:03;17.00;99.90
24262;DHT22;12385;51.412;5.540;2022-08-07T07:39:30;17.20;99.90
24262;DHT22;12385;51.412;5.540;2022-08-07T07:41:57;17.20;99.90
24262;DHT22;12385;51.412;5.540;2022-08-07T07:44:26;17.20;99.90
24262;DHT22;12385;51.412;5.540;2022-08-07T07:46:53;17.30;99.90
24262;DHT22;12385;51.412;5.540;2022-08-07T07:49:19;17.30;99.90
24262;DHT22;12385;51.412;5.540;2022-08-07T07:51:47;17.40;99.90
24262;DHT22;12385;51.412;5.540;2022-08-07T07:54:14;17.50;99.90
24262;DHT22;12385;51.412;5.540;2022-08-07T07:56:42;17.50;99.90
24262;DHT22;12385;51.412;5.540;2022-08-07T07:59:08;17.60;99.90
24262;DHT22;12385;51.412;5.540;2022-08-07T08:01:37;17.70;99.90
24262;DHT22;12385;51.412;5.540;2022-08-07T08:04:06;17.80;99.90
24262;DHT22;12385;51.412;5.540;2022-08-07T08:06:32;17.90;99.90
24262;DHT22;12385;51.412;5.540;2022-08-07T08:09:01;18.00;99.90
24262;DHT22;12385;51.412;5.540;2022-08-07T08:11:28;18.00;99.90
24262;DHT22;12385;51.412;5.540;2022-08-07T08:13:55;18.20;99.90
24262;DHT22;12385;51.412;5.540;2022-08-07T08:16:24;18.20;99.90
24262;DHT22;12385;51.412;5.540;2022-08-07T08:18:53;18.30;99.90
24262;DHT22;12385;51.412;5.540;2022-08-07T08:21:19;18.30;99.90
24262;DHT22;12385;51.412;5.540;2022-08-07T08:24:05;18.40;99.90
24262;DHT22;12385;51.412;5.540;2022-08-07T08:26:52;18.40;99.90
24262;DHT22;12385;51.412;5.540;2022-08-07T08:29:46;18.50;99.90
24262;DHT22;12385;51.412;5.540;2022-08-07T08:32:20;18.60;99.90
24262;DHT22;12385;51.412;5.540;2022-08-07T08:34:47;18.70;99.90
24262;DHT22;12385;51.412;5.540;2022-08-07T08:37:15;18.70;99.90
24262;DHT22;12385;51.412;5.540;2022-08-07T08:39:45;18.80;99.50
24262;DHT22;12385;51.412;5.540;2022-08-07T08:42:18;18.90;99.00
24262;DHT22;12385;51.412;5.540;2022-08-07T08:45:11;19.10;98.60
24262;DHT22;12385;51.412;5.540;2022-08-07T08:50:47;19.20;98.30
24262;DHT22;12385;51.412;5.540;2022-08-07T08:55:45;19.30;97.40
24262;DHT22;12385;51.412;5.540;2022-08-07T08:58:33;19.30;97.20
24262;DHT22;12385;51.412;5.540;2022-08-07T09:03:52;19.60;96.60
24262;DHT22;12385;51.412;5.540;2022-08-07T09:06:59;19.60;96.40
24262;DHT22;12385;51.412;5.540;2022-08-07T09:09:57;19.70;96.00
24262;DHT22;12385;51.412;5.540;2022-08-07T09:12:39;19.70;95.60
24262;DHT22;12385;51.412;5.540;2022-08-07T09:23:54;20.00;94.20
24262;DHT22;12385;51.412;5.540;2022-08-07T09:29:16;20.10;93.40
24262;DHT22;12385;51.412;5.540;2022-08-07T09:35:10;20.30;92.50
24262;DHT22;12385;51.412;5.540;2022-08-07T09:41:01;20.40;91.50
24262;DHT22;12385;51.412;5.540;2022-08-07T09:43:33;20.50;91.00
24262;DHT22;12385;51.412;5.540;2022-08-07T09:46:28;20.60;90.30
24262;DHT22;12385;51.412;5.540;2022-08-07T09:49:09;20.60;89.90
24262;DHT22;12385;51.412;5.540;2022-08-07T09:54:54;20.60;88.90
24262;DHT22;12385;51.412;5.540;2022-08-07T09:57:46;20.70;89.00
24262;DHT22;12385;51.412;5.540;2022-08-07T10:00:17;20.70;88.60
24262;DHT22;12385;51.412;5.540;2022-08-07T10:05:34;20.80;86.70
24262;DHT22;12385;51.412;5.540;2022-08-07T10:10:47;21.00;87.00
24262;DHT22;12385;51.412;5.540;2022-08-07T10:28:35;21.50;79.90
24262;DHT22;12385;51.412;5.540;2022-08-07T10:36:58;21.70;78.90
24262;DHT22;12385;51.412;5.540;2022-08-07T10:39:55;21.80;77.70
24262;DHT22;12385;51.412;5.540;2022-08-07T10:42:41;22.00;77.50
24262;DHT22;12385;51.412;5.540;2022-08-07T10:55:46;22.50;74.60
24262;DHT22;12385;51.412;5.540;2022-08-07T11:03:55;22.90;69.40
24262;DHT22;12385;51.412;5.540;2022-08-07T11:09:39;23.10;70.20
24262;DHT22;12385;51.412;5.540;2022-08-07T11:12:31;23.10;68.50
24262;DHT22;12385;51.412;5.540;2022-08-07T11:15:10;23.10;67.70
24262;DHT22;12385;51.412;5.540;2022-08-07T11:17:51;23.20;66.20
24262;DHT22;12385;51.412;5.540;2022-08-07T11:20:36;23.30;65.90
24262;DHT22;12385;51.412;5.540;2022-08-07T11:23:06;23.40;66.00
24262;DHT22;12385;51.412;5.540;2022-08-07T11:25:47;23.40;65.60
24262;DHT22;12385;51.412;5.540;2022-08-07T11:28:38;23.40;65.90
24262;DHT22;12385;51.412;5.540;2022-08-07T11:31:11;23.50;65.80
24262;DHT22;12385;51.412;5.540;2022-08-07T11:33:52;23.70;65.50
24262;DHT22;12385;51.412;5.540;2022-08-07T11:42:25;24.00;63.20
24262;DHT22;12385;51.412;5.540;2022-08-07T11:47:36;24.10;59.40
24262;DHT22;12385;51.412;5.540;2022-08-07T11:53:06;24.40;60.00
24262;DHT22;12385;51.412;5.540;2022-08-07T11:55:57;24.50;58.90
24262;DHT22;12385;51.412;5.540;2022-08-07T11:59:00;24.70;58.00
24262;DHT22;12385;51.412;5.540;2022-08-07T12:01:59;24.90;57.50
24262;DHT22;12385;51.412;5.540;2022-08-07T12:09:56;25.60;55.80
24262;DHT22;12385;51.412;5.540;2022-08-07T12:12:30;25.90;55.40
24262;DHT22;12385;51.412;5.540;2022-08-07T12:15:13;26.10;54.10
24262;DHT22;12385;51.412;5.540;2022-08-07T12:17:56;26.20;53.60
24262;DHT22;12385;51.412;5.540;2022-08-07T12:20:47;26.20;53.20
24262;DHT22;12385;51.412;5.540;2022-08-07T12:23:43;26.30;53.30
24262;DHT22;12385;51.412;5.540;2022-08-07T12:26:22;26.40;52.20
24262;DHT22;12385;51.412;5.540;2022-08-07T12:31:37;26.60;51.70
24262;DHT22;12385;51.412;5.540;2022-08-07T12:34:04;26.70;50.70
24262;DHT22;12385;51.412;5.540;2022-08-07T12:36:32;26.70;50.60
24262;DHT22;12385;51.412;5.540;2022-08-07T12:39:01;26.80;49.50
24262;DHT22;12385;51.412;5.540;2022-08-07T12:41:28;26.80;49.50
24262;DHT22;12385;51.412;5.540;2022-08-07T12:43:57;27.00;50.10
24262;DHT22;12385;51.412;5.540;2022-08-07T12:48:55;27.00;49.50
24262;DHT22;12385;51.412;5.540;2022-08-07T12:51:49;27.00;49.00
24262;DHT22;12385;51.412;5.540;2022-08-07T12:54:34;26.90;48.60
24262;DHT22;12385;51.412;5.540;2022-08-07T12:57:06;26.80;47.60
24262;DHT22;12385;51.412;5.540;2022-08-07T12:59:34;26.90;48.40
24262;DHT22;12385;51.412;5.540;2022-08-07T13:02:22;27.20;47.90
24262;DHT22;12385;51.412;5.540;2022-08-07T13:08:16;28.10;47.20
24262;DHT22;12385;51.412;5.540;2022-08-07T13:13:33;28.70;43.10
24262;DHT22;12385;51.412;5.540;2022-08-07T13:21:27;29.50;43.00
24262;DHT22;12385;51.412;5.540;2022-08-07T13:24:29;29.80;41.90
24262;DHT22;12385;51.412;5.540;2022-08-07T13:27:14;30.20;40.90
24262;DHT22;12385;51.412;5.540;2022-08-07T13:29:49;30.20;40.80
24262;DHT22;12385;51.412;5.540;2022-08-07T13:37:48;30.70;39.20
24262;DHT22;12385;51.412;5.540;2022-08-07T13:40:30;30.90;38.60
24262;DHT22;12385;51.412;5.540;2022-08-07T13:43:05;31.10;38.40
24262;DHT22;12385;51.412;5.540;2022-08-07T13:45:33;31.20;40.10
24262;DHT22;12385;51.412;5.540;2022-08-07T13:48:02;31.50;38.70
24262;DHT22;12385;51.412;5.540;2022-08-07T13:50:29;31.80;38.00
24262;DHT22;12385;51.412;5.540;2022-08-07T13:52:57;32.10;38.00
24262;DHT22;12385;51.412;5.540;2022-08-07T13:55:26;32.30;36.70
24262;DHT22;12385;51.412;5.540;2022-08-07T13:58:05;32.30;35.80
24262;DHT22;12385;51.412;5.540;2022-08-07T14:00:51;32.40;34.50
24262;DHT22;12385;51.412;5.540;2022-08-07T14:03:18;32.40;35.80
24262;DHT22;12385;51.412;5.540;2022-08-07T14:05:46;32.70;36.00
24262;DHT22;12385;51.412;5.540;2022-08-07T14:08:15;33.10;36.10
24262;DHT22;12385;51.412;5.540;2022-08-07T14:10:42;33.60;35.30
24262;DHT22;12385;51.412;5.540;2022-08-07T14:13:15;33.90;34.60
24262;DHT22;12385;51.412;5.540;2022-08-07T14:15:53;34.00;33.80
24262;DHT22;12385;51.412;5.540;2022-08-07T14:18:37;34.10;33.00
24262;DHT22;12385;51.412;5.540;2022-08-07T14:21:10;34.20;32.20
24262;DHT22;12385;51.412;5.540;2022-08-07T14:23:39;34.30;32.00
24262;DHT22;12385;51.412;5.540;2022-08-07T14:26:12;34.60;32.10
24262;DHT22;12385;51.412;5.540;2022-08-07T14:28:43;34.80;33.00
24262;DHT22;12385;51.412;5.540;2022-08-07T14:31:11;34.60;31.50
24262;DHT22;12385;51.412;5.540;2022-08-07T14:33:40;34.30;32.10
24262;DHT22;12385;51.412;5.540;2022-08-07T14:36:07;34.30;31.40
24262;DHT22;12385;51.412;5.540;2022-08-07T14:38:36;34.40;31.00
24262;DHT22;12385;51.412;5.540;2022-08-07T14:41:05;34.80;31.20
24262;DHT22;12385;51.412;5.540;2022-08-07T14:43:39;34.90;31.10
24262;DHT22;12385;51.412;5.540;2022-08-07T14:46:06;35.20;31.30
24262;DHT22;12385;51.412;5.540;2022-08-07T14:48:36;35.60;31.00
24262;DHT22;12385;51.412;5.540;2022-08-07T14:51:06;35.90;30.70
24262;DHT22;12385;51.412;5.540;2022-08-07T14:53:39;36.00;30.90
24262;DHT22;12385;51.412;5.540;2022-08-07T14:56:07;36.00;30.80
24262;DHT22;12385;51.412;5.540;2022-08-07T14:58:36;36.00;30.70
24262;DHT22;12385;51.412;5.540;2022-08-07T15:01:04;36.00;29.90
24262;DHT22;12385;51.412;5.540;2022-08-07T15:03:31;35.90;30.40
24262;DHT22;12385;51.412;5.540;2022-08-07T15:06:00;36.10;30.00
24262;DHT22;12385;51.412;5.540;2022-08-07T15:08:31;36.50;29.60
24262;DHT22;12385;51.412;5.540;2022-08-07T15:11:05;36.80;29.50
24262;DHT22;12385;51.412;5.540;2022-08-07T15:13:37;36.80;29.00
24262;DHT22;12385;51.412;5.540;2022-08-07T15:16:06;36.90;28.70
24262;DHT22;12385;51.412;5.540;2022-08-07T15:18:37;37.10;28.30
24262;DHT22;12385;51.412;5.540;2022-08-07T15:21:14;37.00;28.90
24262;DHT22;12385;51.412;5.540;2022-08-07T15:23:44;37.10;28.90
24262;DHT22;12385;51.412;5.540;2022-08-07T15:26:11;37.00;28.90
24262;DHT22;12385;51.412;5.540;2022-08-07T15:28:39;36.90;29.00
24262;DHT22;12385;51.412;5.540;2022-08-07T15:31:08;36.80;28.80
24262;DHT22;12385;51.412;5.540;2022-08-07T15:33:38;36.90;28.70
24262;DHT22;12385;51.412;5.540;2022-08-07T15:36:06;37.10;28.60
24262;DHT22;12385;51.412;5.540;2022-08-07T15:38:35;37.30;28.10
24262;DHT22;12385;51.412;5.540;2022-08-07T15:41:08;37.20;28.20
24262;DHT22;12385;51.412;5.540;2022-08-07T15:43:36;37.10;28.10
24262;DHT22;12385;51.412;5.540;2022-08-07T15:46:23;36.80;29.00
24262;DHT22;12385;51.412;5.540;2022-08-07T15:48:52;36.70;28.90
24262;DHT22;12385;51.412;5.540;2022-08-07T15:51:20;36.40;28.60
24262;DHT22;12385;51.412;5.540;2022-08-07T15:53:51;35.90;28.90
24262;DHT22;12385;51.412;5.540;2022-08-07T15:56:21;35.30;29.10
24262;DHT22;12385;51.412;5.540;2022-08-07T15:58:51;35.10;30.00
24262;DHT22;12385;51.412;5.540;2022-08-07T16:01:32;35.30;29.90
24262;DHT22;12385;51.412;5.540;2022-08-07T16:04:01;35.40;29.30
24262;DHT22;12385;51.412;5.540;2022-08-07T16:06:31;35.30;29.40
24262;DHT22;12385;51.412;5.540;2022-08-07T16:09:05;35.30;29.40
24262;DHT22;12385;51.412;5.540;2022-08-07T16:11:54;35.30;29.10
24262;DHT22;12385;51.412;5.540;2022-08-07T16:14:52;35.30;29.40
24262;DHT22;12385;51.412;5.540;2022-08-07T16:17:49;35.50;29.30
24262;DHT22;12385;51.412;5.540;2022-08-07T16:20:53;35.90;29.30
24262;DHT22;12385;51.412;5.540;2022-08-07T16:32:10;36.30;29.00
24262;DHT22;12385;51.412;5.540;2022-08-07T16:34:46;36.50;29.10
24262;DHT22;12385;51.412;5.540;2022-08-07T16:37:47;36.70;28.50
24262;DHT22;12385;51.412;5.540;2022-08-07T16:40:47;36.80;27.90
24262;DHT22;12385;51.412;5.540;2022-08-07T16:43:44;36.60;27.70
24262;DHT22;12385;51.412;5.540;2022-08-07T16:46:28;36.60;28.30
24262;DHT22;12385;51.412;5.540;2022-08-07T16:49:28;36.70;28.00
24262;DHT22;12385;51.412;5.540;2022-08-07T16:52:22;36.50;28.00
24262;DHT22;12385;51.412;5.540;2022-08-07T17:00:09;36.40;28.00
24262;DHT22;12385;51.412;5.540;2022-08-07T17:02:59;36.30;28.20
24262;DHT22;12385;51.412;5.540;2022-08-07T17:08:00;35.70;29.20
24262;DHT22;12385;51.412;5.540;2022-08-07T17:11:11;35.80;29.10
24262;DHT22;12385;51.412;5.540;2022-08-07T17:13:30;36.10;29.40
24262;DHT22;12385;51.412;5.540;2022-08-07T17:21:23;35.50;29.00
24262;DHT22;12385;51.412;5.540;2022-08-07T17:27:04;35.00;29.40
24262;DHT22;12385;51.412;5.540;2022-08-07T17:30:06;34.80;29.80
24262;DHT22;12385;51.412;5.540;2022-08-07T17:35:36;33.70;31.40
24262;DHT22;12385;51.412;5.540;2022-08-07T17:38:16;33.40;32.00
24262;DHT22;12385;51.412;5.540;2022-08-07T17:43:13;32.90;32.60
24262;DHT22;12385;51.412;5.540;2022-08-07T17:45:49;32.60;33.40
24262;DHT22;12385;51.412;5.540;2022-08-07T17:48:20;32.20;34.10
24262;DHT22;12385;51.412;5.540;2022-08-07T17:53:50;31.20;35.00
24262;DHT22;12385;51.412;5.540;2022-08-07T17:56:23;30.70;35.80
24262;DHT22;12385;51.412;5.540;2022-08-07T18:01:55;29.80;37.50
24262;DHT22;12385;51.412;5.540;2022-08-07T18:04:32;29.50;38.40
24262;DHT22;12385;51.412;5.540;2022-08-07T18:09:35;29.00;39.10
24262;DHT22;12385;51.412;5.540;2022-08-07T18:12:14;28.70;39.50
24262;DHT22;12385;51.412;5.540;2022-08-07T18:15:02;28.50;39.70
24262;DHT22;12385;51.412;5.540;2022-08-07T18:17:34;28.40;40.00
24262;DHT22;12385;51.412;5.540;2022-08-07T18:20:11;28.20;40.40
24262;DHT22;12385;51.412;5.540;2022-08-07T18:23:25;28.00;40.80
24262;DHT22;12385;51.412;5.540;2022-08-07T18:25:59;27.90;41.20
24262;DHT22;12385;51.412;5.540;2022-08-07T18:28:38;27.90;42.10
24262;DHT22;12385;51.412;5.540;2022-08-07T18:31:17;27.80;42.70
24262;DHT22;12385;51.412;5.540;2022-08-07T18:34:06;27.80;42.30
24262;DHT22;12385;51.412;5.540;2022-08-07T18:36:52;27.70;42.00
24262;DHT22;12385;51.412;5.540;2022-08-07T18:45:08;27.20;42.70
24262;DHT22;12385;51.412;5.540;2022-08-07T18:47:47;27.10;42.80
24262;DHT22;12385;51.412;5.540;2022-08-07T19:01:28;26.50;44.40
24262;DHT22;12385;51.412;5.540;2022-08-07T19:04:04;26.30;45.00
24262;DHT22;12385;51.412;5.540;2022-08-07T19:15:31;25.70;46.10
24262;DHT22;12385;51.412;5.540;2022-08-07T19:23:27;25.40;47.20
24262;DHT22;12385;51.412;5.540;2022-08-07T19:25:56;25.30;47.60